Time;durP1;ratioP1;P1;durP2;ratioP2;P2;SDS_P1;SDS_P2;PMS_P1;PMS_P2;Temp;Humidity;BMP_temperature;BMP_pressure;BME280_temperature;BME280_humidity;BME280_pressure;Samples;Min_cycle;Max_cycle;Signal;HPM_P1;HPM_P2
2022/12/04 00:14:44;;;;;;;64.28;27.38;;;;;;;1.43;75.64;100735.81;30729943;28;97127;-71
2022/12/04 00:29:44;;;;;;;58.88;27.83;;;;;;;1.52;76.32;100708.13;30729706;28;96742;-71
2022/12/04 00:44:44;;;;;;;59.03;26.83;;;;;;;1.50;75.77;100715.25;30737517;28;97292;-72
2022/12/04 00:59:45;;;;;;;64.10;28.75;;;;;;;1.54;75.94;100703.63;30748021;28;96947;-68
2022/12/04 01:14:45;;;;;;;52.97;26.55;;;;;;;1.63;76.19;100700.41;30745949;28;96743;-67
2022/12/04 01:29:46;;;;;;;57.88;29.60;;;;;;;1.35;76.10;100681.19;30745231;28;96621;-69
2022/12/04 01:45:23;;;;;;;51.30;26.35;;;;;;;0.90;75.79;100679.69;30743716;28;97860;-67
2022/12/04 02:00:24;;;;;;;51.47;27.00;;;;;;;0.45;76.29;100661.44;30741884;28;97406;-68
2022/12/04 02:16:01;;;;;;;53.28;25.58;;;;;;;0.30;76.74;100671.06;30739771;28;96753;-67
2022/12/04 02:31:04;;;;;;;58.45;26.92;;;;;;;0.70;78.22;100659.94;30739535;28;96795;-68
2022/12/04 02:46:20;;;;;;;56.38;28.52;;;;;;;0.92;77.64;100656.84;30737918;28;96777;-68
2022/12/04 03:01:27;;;;;;;56.78;29.02;;;;;;;0.67;76.77;100661.00;30735061;28;97436;-68
2022/12/04 03:16:34;;;;;;;50.80;25.33;;;;;;;0.31;77.33;100655.25;30735730;28;96748;-68
2022/12/04 03:31:44;;;;;;;53.72;27.25;;;;;;;-0.05;77.70;100660.94;30734063;28;96938;-68
2022/12/04 03:47:11;;;;;;;54.92;27.13;;;;;;;-0.12;78.30;100651.72;30732990;28;97335;-68
2022/12/04 04:02:15;;;;;;;57.63;27.65;;;;;;;-0.07;78.78;100658.41;30731218;28;97338;-68
2022/12/04 04:32:54;;;;;;;57.88;26.23;;;;;;;-0.06;78.53;100627.81;30751424;28;97180;-68
2022/12/04 04:48:15;;;;;;;65.72;29.10;;;;;;;-0.20;78.66;100626.00;30748779;28;96745;-68
2022/12/04 05:03:15;;;;;;;61.00;28.48;;;;;;;-0.24;78.83;100622.72;30747201;28;97656;-69
2022/12/04 05:18:16;;;;;;;53.38;26.55;;;;;;;-0.37;79.07;100630.47;30745154;28;96666;-68
2022/12/04 05:33:16;;;;;;;54.33;26.83;;;;;;;-0.57;79.23;100625.53;30743550;28;97016;-68
2022/12/04 05:48:17;;;;;;;56.78;26.60;;;;;;;-0.69;79.57;100633.13;30743009;28;96794;-68
2022/12/04 06:03:17;;;;;;;62.10;27.38;;;;;;;-0.76;79.75;100634.41;30741377;28;96769;-70
2022/12/04 06:18:17;;;;;;;55.83;26.38;;;;;;;-0.78;79.99;100651.97;30739277;28;97781;-68
2022/12/04 06:33:18;;;;;;;65.20;26.27;;;;;;;-0.57;80.54;100665.63;30738220;28;96744;-69
2022/12/04 06:48:18;;;;;;;58.60;25.63;;;;;;;-0.20;80.62;100662.66;30734880;28;96752;-68
2022/12/04 07:03:19;;;;;;;54.35;26.48;;;;;;;0.05;80.29;100659.44;30732532;28;97490;-71
2022/12/04 07:18:20;;;;;;;55.70;27.67;;;;;;;0.65;80.59;100652.38;30733400;28;96785;-71
2022/12/04 07:33:21;;;;;;;54.20;27.77;;;;;;;1.40;80.29;100656.41;30730947;28;97673;-71
2022/12/04 07:48:22;;;;;;;57.10;28.75;;;;;;;1.99;79.79;100680.50;30731186;28;97471;-71
2022/12/04 08:03:23;;;;;;;65.03;28.50;;;;;;;3.08;79.33;100659.94;30750247;28;97530;-72
2022/12/04 08:18:24;;;;;;;56.70;27.55;;;;;;;4.82;78.20;100672.38;30750052;28;96657;-67
2022/12/04 08:33:24;;;;;;;53.80;28.55;;;;;;;6.41;75.99;100667.34;30748386;28;97795;-70
2022/12/04 08:48:25;;;;;;;55.72;31.88;;;;;;;7.01;72.75;100677.22;30746976;28;96950;-68
2022/12/04 09:03:26;;;;;;;68.37;31.13;;;;;;;9.55;68.81;100692.59;30743538;28;96761;-68
2022/12/04 09:18:26;;;;;;;45.05;27.05;;;;;;;12.89;64.29;100680.81;30744265;28;97222;-69
2022/12/04 09:33:27;;;;;;;41.67;27.38;;;;;;;13.78;57.63;100680.47;30742445;28;97997;-69
2022/12/04 09:48:34;;;;;;;45.23;27.03;;;;;;;14.44;54.55;100664.66;30740858;28;97139;-68
2022/12/04 10:03:34;;;;;;;35.87;23.57;;;;;;;15.06;51.13;100654.53;30738398;28;97416;-70
2022/12/04 10:18:55;;;;;;;42.28;24.92;;;;;;;16.44;47.53;100640.91;30735943;28;97078;-68
2022/12/04 10:34:12;;;;;;;38.80;25.30;;;;;;;18.52;42.76;100633.19;30735610;28;97379;-69
2022/12/04 10:49:23;;;;;;;36.40;23.77;;;;;;;21.12;36.29;100637.63;30735826;28;96600;-70
2022/12/04 11:04:29;;;;;;;32.63;23.00;;;;;;;21.96;32.02;100612.38;30734435;28;96764;-68
2022/12/04 11:19:33;;;;;;;33.17;22.83;;;;;;;17.33;35.38;100593.47;30732427;28;96730;-72
2022/12/04 11:34:40;;;;;;;37.20;22.80;;;;;;;14.62;39.67;100580.34;30730909;28;96773;-73
2022/12/04 11:49:41;;;;;;;35.47;22.33;;;;;;;12.64;42.72;100569.50;30730773;28;96762;-70
2022/12/04 12:04:51;;;;;;;36.30;22.45;;;;;;;11.29;45.84;100561.19;30728976;28;96842;-72
2022/12/04 12:20:15;;;;;;;40.83;24.60;;;;;;;10.26;48.20;100554.25;30727249;28;96956;-68
2022/12/04 12:35:36;;;;;;;;;;;;;;;14.95;45.24;100574.56;30730022;28;97403;-71
2022/12/04 12:50:52;;;;;;;33.93;21.50;;;;;;;18.38;38.47;100573.06;30745678;28;96738;-71
2022/12/04 13:05:58;;;;;;;31.43;20.90;;;;;;;15.99;38.99;100563.31;30744403;28;96635;-68
2022/12/04 13:21:02;;;;;;;34.60;21.03;;;;;;;14.24;41.12;100546.44;30742117;28;96793;-69
2022/12/04 13:36:13;;;;;;;41.97;24.67;;;;;;;11.02;46.09;100528.53;30742946;28;97897;-68
2022/12/04 13:51:13;;;;;;;43.83;24.97;;;;;;;9.48;50.03;100516.84;30740475;28;96673;-72
2022/12/04 14:06:27;;;;;;;51.58;27.75;;;;;;;8.65;51.90;100556.94;30738328;28;97580;-73
2022/12/04 14:21:39;;;;;;;34.77;19.33;;;;;;;7.22;54.75;100556.06;30738180;28;96756;-70
2022/12/04 14:36:44;;;;;;;26.73;15.20;;;;;;;6.15;56.85;100561.09;30736587;28;96740;-69
2022/12/04 14:52:03;;;;;;;24.50;14.47;;;;;;;5.16;59.55;100580.72;30734481;28;96842;-67
2022/12/04 15:07:03;;;;;;;24.33;14.43;;;;;;;4.50;61.37;100580.78;30731965;28;96744;-69
2022/12/04 15:22:10;;;;;;;26.65;16.23;;;;;;;3.96;63.05;100569.94;30731403;28;97129;-67
2022/12/04 15:37:24;;;;;;;32.00;18.70;;;;;;;3.59;64.18;100571.94;30730670;28;96703;-67
2022/12/04 15:52:25;;;;;;;35.77;18.47;;;;;;;3.13;65.53;100597.25;30729508;28;96616;-69
2022/12/04 16:07:27;;;;;;;33.50;19.58;;;;;;;2.81;66.75;100589.91;30728337;28;97314;-69
2022/12/04 16:22:30;;;;;;;38.80;20.52;;;;;;;2.46;67.31;100604.63;30747420;28;96745;-67
2022/12/04 16:37:30;;;;;;;41.20;23.65;;;;;;;2.11;68.27;100591.28;30748030;28;97437;-71
2022/12/04 16:52:31;;;;;;;36.55;20.23;;;;;;;1.84;69.54;100592.22;30746396;28;97790;-69
2022/12/04 17:07:31;;;;;;;40.70;20.10;;;;;;;1.54;70.20;100603.00;30744068;28;97893;-67
2022/12/04 17:22:32;;;;;;;36.33;21.23;;;;;;;1.29;71.26;100613.31;30742511;28;96687;-71
2022/12/04 17:37:33;;;;;;;41.28;22.02;;;;;;;1.22;72.11;100622.53;30743132;28;96781;-67
2022/12/04 17:52:34;;;;;;;39.55;19.60;;;;;;;1.21;72.54;100620.84;30742030;28;96717;-70
2022/12/04 18:07:34;;;;;;;39.88;21.50;;;;;;;1.39;73.50;100613.56;30739562;28;96651;-68
2022/12/04 18:22:34;;;;;;;38.10;22.08;;;;;;;1.58;73.61;100597.44;30738195;28;97584;-68
2022/12/04 18:37:35;;;;;;;41.85;20.75;;;;;;;1.72;73.79;100596.50;30736725;28;96734;-68
2022/12/04 18:52:37;;;;;;;37.00;20.63;;;;;;;1.88;74.00;100601.56;30735331;28;97249;-67
2022/12/04 19:07:37;;;;;;;39.72;22.30;;;;;;;1.98;74.59;100596.53;30732668;28;96830;-68
2022/12/04 19:22:38;;;;;;;41.25;23.10;;;;;;;1.97;74.96;100603.59;30732193;28;98351;-66
2022/12/04 19:37:39;;;;;;;41.35;21.73;;;;;;;1.91;75.24;100603.97;30731717;28;97185;-66
2022/12/04 19:52:39;;;;;;;42.45;21.02;;;;;;;1.94;75.96;100609.06;30743677;28;96675;-71
2022/12/04 20:07:40;;;;;;;43.65;23.35;;;;;;;1.99;76.17;100614.81;30750768;28;97231;-70
2022/12/04 20:22:40;;;;;;;34.85;21.70;;;;;;;1.96;76.53;100620.28;30749231;28;96810;-66
2022/12/04 20:37:41;;;;;;;44.30;22.40;;;;;;;1.88;76.56;100622.59;30747260;28;96791;-71
2022/12/04 20:52:42;;;;;;;45.03;22.85;;;;;;;1.92;77.21;100613.56;30744846;28;96741;-69
2022/12/04 21:07:42;;;;;;;38.63;19.75;;;;;;;2.00;77.51;100599.91;30743873;28;97687;-72
2022/12/04 21:22:43;;;;;;;37.75;19.05;;;;;;;2.05;77.35;100587.31;30744450;28;96933;-69
2022/12/04 21:37:43;;;;;;;39.75;19.13;;;;;;;2.08;77.64;100583.59;30742609;28;97327;-72
2022/12/04 21:52:43;;;;;;;43.45;21.48;;;;;;;2.02;77.69;100577.84;30740516;28;96648;-69
2022/12/04 22:07:44;;;;;;;47.00;21.27;;;;;;;2.00;77.77;100577.09;30739463;28;96714;-67
2022/12/04 22:22:44;;;;;;;41.47;21.85;;;;;;;1.95;78.62;100557.34;30739017;28;97464;-68
2022/12/04 22:37:44;;;;;;;47.22;23.02;;;;;;;1.97;78.81;100561.53;30737629;28;96707;-67
2022/12/04 22:52:45;;;;;;;45.53;22.80;;;;;;;2.01;78.83;100541.16;30737708;28;97306;-68
2022/12/04 23:07:45;;;;;;;48.47;22.23;;;;;;;2.04;79.37;100551.44;30735937;28;96809;-66
2022/12/04 23:22:47;;;;;;;52.10;21.88;;;;;;;2.08;79.20;100526.63;30733750;28;96887;-67
2022/12/04 23:37:47;;;;;;;39.45;19.73;;;;;;;2.09;79.24;100537.97;30734027;28;97807;-67
2022/12/04 23:52:47;;;;;;;47.05;21.35;;;;;;;2.04;79.36;100535.69;30732607;28;96790;-72
